sensor_id;sensor_type;location;lat;lon;timestamp;P1;durP1;ratioP1;P2;durP2;ratioP2
35380;SDS011;21486;51.916;8.378;2023-01-05T00:01:44;37.25;;;6.70;;
35380;SDS011;21486;51.916;8.378;2023-01-05T00:04:10;45.30;;;8.43;;
35380;SDS011;21486;51.916;8.378;2023-01-05T00:06:35;39.83;;;7.80;;
35380;SDS011;21486;51.916;8.378;2023-01-05T00:09:02;37.95;;;7.30;;
35380;SDS011;21486;51.916;8.378;2023-01-05T00:11:28;38.35;;;7.00;;
35380;SDS011;21486;51.916;8.378;2023-01-05T00:14:14;43.22;;;8.27;;
35380;SDS011;21486;51.916;8.378;2023-01-05T00:17:03;43.03;;;8.27;;
35380;SDS011;21486;51.916;8.378;2023-01-05T00:19:48;37.20;;;7.32;;
35380;SDS011;21486;51.916;8.378;2023-01-05T00:22:35;42.07;;;7.83;;
35380;SDS011;21486;51.916;8.378;2023-01-05T00:25:13;39.00;;;6.53;;
35380;SDS011;21486;51.916;8.378;2023-01-05T00:27:40;35.30;;;6.60;;
35380;SDS011;21486;51.916;8.378;2023-01-05T00:30:08;37.90;;;7.00;;
35380;SDS011;21486;51.916;8.378;2023-01-05T00:32:34;37.17;;;6.78;;
35380;SDS011;21486;51.916;8.378;2023-01-05T00:35:00;35.40;;;7.67;;
35380;SDS011;21486;51.916;8.378;2023-01-05T00:37:27;41.05;;;7.35;;
35380;SDS011;21486;51.916;8.378;2023-01-05T00:39:55;38.78;;;6.78;;
35380;SDS011;21486;51.916;8.378;2023-01-05T00:42:20;40.30;;;6.83;;
35380;SDS011;21486;51.916;8.378;2023-01-05T00:44:46;34.47;;;6.18;;
35380;SDS011;21486;51.916;8.378;2023-01-05T00:47:12;37.80;;;7.00;;
35380;SDS011;21486;51.916;8.378;2023-01-05T00:49:38;39.23;;;6.53;;
35380;SDS011;21486;51.916;8.378;2023-01-05T00:52:04;38.70;;;6.53;;
35380;SDS011;21486;51.916;8.378;2023-01-05T00:54:30;33.20;;;6.25;;
35380;SDS011;21486;51.916;8.378;2023-01-05T00:56:56;38.33;;;6.85;;
35380;SDS011;21486;51.916;8.378;2023-01-05T00:59:21;31.63;;;6.33;;
35380;SDS011;21486;51.916;8.378;2023-01-05T01:01:47;34.37;;;6.10;;
35380;SDS011;21486;51.916;8.378;2023-01-05T01:04:14;30.02;;;6.45;;
35380;SDS011;21486;51.916;8.378;2023-01-05T01:06:40;35.15;;;5.70;;
35380;SDS011;21486;51.916;8.378;2023-01-05T01:09:06;37.45;;;6.53;;
35380;SDS011;21486;51.916;8.378;2023-01-05T01:11:32;33.93;;;6.13;;
35380;SDS011;21486;51.916;8.378;2023-01-05T01:13:57;36.47;;;6.20;;
35380;SDS011;21486;51.916;8.378;2023-01-05T01:16:23;35.30;;;6.50;;
35380;SDS011;21486;51.916;8.378;2023-01-05T01:18:49;33.65;;;5.93;;
35380;SDS011;21486;51.916;8.378;2023-01-05T01:21:14;43.97;;;6.60;;
35380;SDS011;21486;51.916;8.378;2023-01-05T01:23:40;30.75;;;6.53;;
35380;SDS011;21486;51.916;8.378;2023-01-05T01:26:07;35.35;;;5.93;;
35380;SDS011;21486;51.916;8.378;2023-01-05T01:28:34;35.25;;;6.07;;
35380;SDS011;21486;51.916;8.378;2023-01-05T01:33:01;31.88;;;5.30;;
35380;SDS011;21486;51.916;8.378;2023-01-05T01:35:27;31.73;;;5.97;;
35380;SDS011;21486;51.916;8.378;2023-01-05T01:37:52;24.90;;;5.18;;
35380;SDS011;21486;51.916;8.378;2023-01-05T01:40:18;29.35;;;5.80;;
35380;SDS011;21486;51.916;8.378;2023-01-05T01:42:43;32.07;;;5.77;;
35380;SDS011;21486;51.916;8.378;2023-01-05T01:45:27;30.57;;;5.00;;
35380;SDS011;21486;51.916;8.378;2023-01-05T01:47:55;29.35;;;5.68;;
35380;SDS011;21486;51.916;8.378;2023-01-05T01:53:13;36.30;;;6.93;;
35380;SDS011;21486;51.916;8.378;2023-01-05T01:55:46;35.85;;;6.38;;
35380;SDS011;21486;51.916;8.378;2023-01-05T01:58:13;28.20;;;5.28;;
35380;SDS011;21486;51.916;8.378;2023-01-05T02:00:41;32.15;;;5.00;;
35380;SDS011;21486;51.916;8.378;2023-01-05T02:03:08;29.90;;;6.00;;
35380;SDS011;21486;51.916;8.378;2023-01-05T02:05:34;31.08;;;5.93;;
35380;SDS011;21486;51.916;8.378;2023-01-05T02:08:02;30.15;;;5.70;;
35380;SDS011;21486;51.916;8.378;2023-01-05T02:19:00;37.92;;;7.05;;
35380;SDS011;21486;51.916;8.378;2023-01-05T02:33:31;37.47;;;6.72;;
35380;SDS011;21486;51.916;8.378;2023-01-05T02:36:19;33.05;;;5.72;;
35380;SDS011;21486;51.916;8.378;2023-01-05T02:38:57;32.47;;;5.88;;
35380;SDS011;21486;51.916;8.378;2023-01-05T02:44:16;30.75;;;5.63;;
35380;SDS011;21486;51.916;8.378;2023-01-05T02:46:43;34.58;;;5.30;;
35380;SDS011;21486;51.916;8.378;2023-01-05T02:49:09;35.60;;;6.22;;
35380;SDS011;21486;51.916;8.378;2023-01-05T02:51:41;30.40;;;5.55;;
35380;SDS011;21486;51.916;8.378;2023-01-05T02:56:54;33.80;;;5.53;;
35380;SDS011;21486;51.916;8.378;2023-01-05T02:59:29;33.42;;;6.03;;
35380;SDS011;21486;51.916;8.378;2023-01-05T03:02:04;32.53;;;5.28;;
35380;SDS011;21486;51.916;8.378;2023-01-05T03:04:38;28.30;;;5.60;;
35380;SDS011;21486;51.916;8.378;2023-01-05T03:07:12;35.25;;;6.35;;
35380;SDS011;21486;51.916;8.378;2023-01-05T03:09:41;35.28;;;5.78;;
35380;SDS011;21486;51.916;8.378;2023-01-05T03:14:56;30.60;;;5.87;;
35380;SDS011;21486;51.916;8.378;2023-01-05T03:17:49;35.70;;;6.90;;
35380;SDS011;21486;51.916;8.378;2023-01-05T03:20:15;40.15;;;7.65;;
35380;SDS011;21486;51.916;8.378;2023-01-05T03:22:45;32.38;;;6.53;;
35380;SDS011;21486;51.916;8.378;2023-01-05T03:25:31;38.60;;;6.77;;
35380;SDS011;21486;51.916;8.378;2023-01-05T03:28:21;39.80;;;6.97;;
35380;SDS011;21486;51.916;8.378;2023-01-05T03:31:09;35.70;;;6.20;;
35380;SDS011;21486;51.916;8.378;2023-01-05T03:34:02;41.45;;;6.68;;
35380;SDS011;21486;51.916;8.378;2023-01-05T03:36:55;37.13;;;6.78;;
35380;SDS011;21486;51.916;8.378;2023-01-05T03:39:27;40.72;;;6.85;;
35380;SDS011;21486;51.916;8.378;2023-01-05T03:41:55;39.13;;;7.32;;
35380;SDS011;21486;51.916;8.378;2023-01-05T03:44:20;35.70;;;6.27;;
35380;SDS011;21486;51.916;8.378;2023-01-05T03:46:46;36.53;;;6.22;;
35380;SDS011;21486;51.916;8.378;2023-01-05T03:49:12;32.30;;;6.45;;
35380;SDS011;21486;51.916;8.378;2023-01-05T03:51:38;42.30;;;6.85;;
35380;SDS011;21486;51.916;8.378;2023-01-05T03:54:03;33.42;;;7.57;;
35380;SDS011;21486;51.916;8.378;2023-01-05T03:56:29;35.63;;;6.30;;
35380;SDS011;21486;51.916;8.378;2023-01-05T03:58:55;36.70;;;6.47;;
35380;SDS011;21486;51.916;8.378;2023-01-05T04:01:20;36.90;;;6.80;;
35380;SDS011;21486;51.916;8.378;2023-01-05T04:03:46;38.73;;;6.20;;
35380;SDS011;21486;51.916;8.378;2023-01-05T04:06:11;42.80;;;5.93;;
35380;SDS011;21486;51.916;8.378;2023-01-05T04:08:37;38.53;;;6.85;;
35380;SDS011;21486;51.916;8.378;2023-01-05T04:11:16;35.58;;;6.47;;
35380;SDS011;21486;51.916;8.378;2023-01-05T04:13:43;39.28;;;6.22;;
35380;SDS011;21486;51.916;8.378;2023-01-05T04:16:08;37.75;;;6.28;;
35380;SDS011;21486;51.916;8.378;2023-01-05T04:18:34;39.53;;;6.90;;
35380;SDS011;21486;51.916;8.378;2023-01-05T04:21:00;35.93;;;6.47;;
35380;SDS011;21486;51.916;8.378;2023-01-05T04:23:26;35.33;;;6.87;;
35380;SDS011;21486;51.916;8.378;2023-01-05T04:25:52;35.93;;;6.07;;
35380;SDS011;21486;51.916;8.378;2023-01-05T04:28:17;35.47;;;6.23;;
35380;SDS011;21486;51.916;8.378;2023-01-05T04:30:43;38.77;;;6.60;;
35380;SDS011;21486;51.916;8.378;2023-01-05T04:33:09;31.75;;;6.30;;
35380;SDS011;21486;51.916;8.378;2023-01-05T04:35:34;37.92;;;6.75;;
35380;SDS011;21486;51.916;8.378;2023-01-05T04:38:00;41.22;;;6.72;;
35380;SDS011;21486;51.916;8.378;2023-01-05T04:40:25;36.88;;;6.20;;
35380;SDS011;21486;51.916;8.378;2023-01-05T04:42:51;35.40;;;6.87;;
35380;SDS011;21486;51.916;8.378;2023-01-05T04:45:16;39.53;;;6.17;;
35380;SDS011;21486;51.916;8.378;2023-01-05T04:47:42;36.53;;;7.10;;
35380;SDS011;21486;51.916;8.378;2023-01-05T04:50:08;37.55;;;6.45;;
35380;SDS011;21486;51.916;8.378;2023-01-05T04:52:34;39.30;;;6.80;;
35380;SDS011;21486;51.916;8.378;2023-01-05T04:55:00;33.07;;;6.40;;
35380;SDS011;21486;51.916;8.378;2023-01-05T04:57:25;36.10;;;6.07;;
35380;SDS011;21486;51.916;8.378;2023-01-05T04:59:51;37.27;;;6.50;;
35380;SDS011;21486;51.916;8.378;2023-01-05T05:02:16;37.13;;;6.57;;
35380;SDS011;21486;51.916;8.378;2023-01-05T05:04:42;43.05;;;7.03;;
35380;SDS011;21486;51.916;8.378;2023-01-05T05:07:07;41.73;;;6.47;;
35380;SDS011;21486;51.916;8.378;2023-01-05T05:09:33;43.40;;;7.13;;
35380;SDS011;21486;51.916;8.378;2023-01-05T05:11:58;39.60;;;6.67;;
35380;SDS011;21486;51.916;8.378;2023-01-05T05:14:24;40.78;;;6.50;;
35380;SDS011;21486;51.916;8.378;2023-01-05T05:16:49;39.05;;;6.22;;
35380;SDS011;21486;51.916;8.378;2023-01-05T05:19:15;40.37;;;6.87;;
35380;SDS011;21486;51.916;8.378;2023-01-05T05:21:41;36.33;;;6.13;;
35380;SDS011;21486;51.916;8.378;2023-01-05T05:24:06;36.13;;;7.13;;
35380;SDS011;21486;51.916;8.378;2023-01-05T05:26:32;44.58;;;7.13;;
35380;SDS011;21486;51.916;8.378;2023-01-05T05:28:58;31.52;;;6.20;;
35380;SDS011;21486;51.916;8.378;2023-01-05T05:31:23;35.95;;;6.38;;
35380;SDS011;21486;51.916;8.378;2023-01-05T05:33:49;45.30;;;7.43;;
35380;SDS011;21486;51.916;8.378;2023-01-05T05:36:15;38.27;;;6.53;;
35380;SDS011;21486;51.916;8.378;2023-01-05T05:38:42;41.35;;;7.22;;
35380;SDS011;21486;51.916;8.378;2023-01-05T05:41:07;36.58;;;6.28;;
35380;SDS011;21486;51.916;8.378;2023-01-05T05:43:33;32.83;;;5.90;;
35380;SDS011;21486;51.916;8.378;2023-01-05T05:45:59;37.83;;;7.40;;
35380;SDS011;21486;51.916;8.378;2023-01-05T05:48:24;38.63;;;7.00;;
35380;SDS011;21486;51.916;8.378;2023-01-05T05:50:50;36.35;;;7.45;;
35380;SDS011;21486;51.916;8.378;2023-01-05T05:53:15;38.53;;;7.07;;
35380;SDS011;21486;51.916;8.378;2023-01-05T05:55:41;40.17;;;7.32;;
35380;SDS011;21486;51.916;8.378;2023-01-05T05:58:07;31.83;;;6.87;;
35380;SDS011;21486;51.916;8.378;2023-01-05T06:00:33;33.17;;;6.15;;
35380;SDS011;21486;51.916;8.378;2023-01-05T06:02:58;37.38;;;6.28;;
35380;SDS011;21486;51.916;8.378;2023-01-05T06:05:24;43.20;;;7.47;;
35380;SDS011;21486;51.916;8.378;2023-01-05T06:07:49;42.27;;;6.63;;
35380;SDS011;21486;51.916;8.378;2023-01-05T06:10:15;36.67;;;7.17;;
35380;SDS011;21486;51.916;8.378;2023-01-05T06:12:40;36.67;;;7.47;;
35380;SDS011;21486;51.916;8.378;2023-01-05T06:15:06;38.33;;;7.20;;
35380;SDS011;21486;51.916;8.378;2023-01-05T06:17:32;38.65;;;6.63;;
35380;SDS011;21486;51.916;8.378;2023-01-05T06:19:58;44.38;;;7.90;;
35380;SDS011;21486;51.916;8.378;2023-01-05T06:22:23;42.80;;;7.72;;
35380;SDS011;21486;51.916;8.378;2023-01-05T06:24:49;40.73;;;7.20;;
35380;SDS011;21486;51.916;8.378;2023-01-05T06:27:14;39.07;;;8.10;;
35380;SDS011;21486;51.916;8.378;2023-01-05T06:29:40;34.17;;;7.38;;
35380;SDS011;21486;51.916;8.378;2023-01-05T06:32:05;44.97;;;7.95;;
35380;SDS011;21486;51.916;8.378;2023-01-05T06:34:31;38.53;;;7.63;;
35380;SDS011;21486;51.916;8.378;2023-01-05T06:36:56;43.80;;;7.87;;
35380;SDS011;21486;51.916;8.378;2023-01-05T06:39:22;45.30;;;7.90;;
35380;SDS011;21486;51.916;8.378;2023-01-05T06:41:47;47.23;;;9.50;;
35380;SDS011;21486;51.916;8.378;2023-01-05T06:44:13;49.03;;;9.15;;
35380;SDS011;21486;51.916;8.378;2023-01-05T06:46:38;46.20;;;8.40;;
35380;SDS011;21486;51.916;8.378;2023-01-05T06:49:04;39.75;;;7.40;;
35380;SDS011;21486;51.916;8.378;2023-01-05T06:51:30;46.90;;;7.65;;
35380;SDS011;21486;51.916;8.378;2023-01-05T06:53:56;44.83;;;7.78;;
35380;SDS011;21486;51.916;8.378;2023-01-05T06:56:21;42.60;;;8.33;;
35380;SDS011;21486;51.916;8.378;2023-01-05T06:58:47;41.77;;;7.93;;
35380;SDS011;21486;51.916;8.378;2023-01-05T07:01:12;48.45;;;7.63;;
35380;SDS011;21486;51.916;8.378;2023-01-05T07:03:38;45.10;;;8.48;;
35380;SDS011;21486;51.916;8.378;2023-01-05T07:06:03;44.23;;;8.10;;
35380;SDS011;21486;51.916;8.378;2023-01-05T07:08:29;34.97;;;7.73;;
35380;SDS011;21486;51.916;8.378;2023-01-05T07:10:54;40.30;;;7.70;;
35380;SDS011;21486;51.916;8.378;2023-01-05T07:13:20;43.83;;;8.32;;
35380;SDS011;21486;51.916;8.378;2023-01-05T07:15:46;43.67;;;7.68;;
35380;SDS011;21486;51.916;8.378;2023-01-05T07:18:11;42.92;;;7.95;;
35380;SDS011;21486;51.916;8.378;2023-01-05T07:20:37;42.23;;;7.77;;
35380;SDS011;21486;51.916;8.378;2023-01-05T07:23:02;49.13;;;7.97;;
35380;SDS011;21486;51.916;8.378;2023-01-05T07:25:28;50.13;;;8.93;;
35380;SDS011;21486;51.916;8.378;2023-01-05T07:27:55;51.38;;;9.27;;
35380;SDS011;21486;51.916;8.378;2023-01-05T07:30:21;50.78;;;8.88;;
35380;SDS011;21486;51.916;8.378;2023-01-05T07:32:47;46.88;;;8.30;;
35380;SDS011;21486;51.916;8.378;2023-01-05T07:35:12;40.27;;;8.27;;
35380;SDS011;21486;51.916;8.378;2023-01-05T07:37:38;52.43;;;8.50;;
35380;SDS011;21486;51.916;8.378;2023-01-05T07:40:03;48.50;;;9.05;;
35380;SDS011;21486;51.916;8.378;2023-01-05T07:42:29;50.35;;;8.13;;
35380;SDS011;21486;51.916;8.378;2023-01-05T07:44:55;48.73;;;8.40;;
35380;SDS011;21486;51.916;8.378;2023-01-05T07:47:21;47.03;;;8.03;;
35380;SDS011;21486;51.916;8.378;2023-01-05T07:49:46;42.73;;;8.53;;
35380;SDS011;21486;51.916;8.378;2023-01-05T07:52:12;44.70;;;8.63;;
35380;SDS011;21486;51.916;8.378;2023-01-05T07:54:37;52.15;;;8.90;;
35380;SDS011;21486;51.916;8.378;2023-01-05T07:57:03;48.10;;;8.53;;
35380;SDS011;21486;51.916;8.378;2023-01-05T07:59:28;45.43;;;8.53;;
35380;SDS011;21486;51.916;8.378;2023-01-05T08:01:54;43.42;;;7.15;;
35380;SDS011;21486;51.916;8.378;2023-01-05T08:04:19;55.17;;;8.65;;
35380;SDS011;21486;51.916;8.378;2023-01-05T08:06:45;41.43;;;7.60;;
35380;SDS011;21486;51.916;8.378;2023-01-05T08:09:11;47.80;;;8.15;;
35380;SDS011;21486;51.916;8.378;2023-01-05T08:11:55;44.38;;;7.78;;
35380;SDS011;21486;51.916;8.378;2023-01-05T08:14:21;48.83;;;7.97;;
35380;SDS011;21486;51.916;8.378;2023-01-05T08:16:46;49.03;;;7.93;;
35380;SDS011;21486;51.916;8.378;2023-01-05T08:19:12;40.42;;;8.13;;
35380;SDS011;21486;51.916;8.378;2023-01-05T08:21:37;44.13;;;7.83;;
35380;SDS011;21486;51.916;8.378;2023-01-05T08:24:03;50.37;;;8.20;;
35380;SDS011;21486;51.916;8.378;2023-01-05T08:26:29;44.23;;;8.53;;
35380;SDS011;21486;51.916;8.378;2023-01-05T08:28:54;41.13;;;7.57;;
35380;SDS011;21486;51.916;8.378;2023-01-05T08:31:21;38.00;;;7.70;;
35380;SDS011;21486;51.916;8.378;2023-01-05T08:33:54;40.13;;;7.47;;
35380;SDS011;21486;51.916;8.378;2023-01-05T08:36:24;42.45;;;8.15;;
35380;SDS011;21486;51.916;8.378;2023-01-05T08:38:50;44.55;;;7.65;;
35380;SDS011;21486;51.916;8.378;2023-01-05T08:41:18;45.08;;;7.15;;
35380;SDS011;21486;51.916;8.378;2023-01-05T08:43:55;40.42;;;7.88;;
35380;SDS011;21486;51.916;8.378;2023-01-05T08:46:23;47.72;;;7.68;;
35380;SDS011;21486;51.916;8.378;2023-01-05T08:48:50;38.53;;;7.68;;
35380;SDS011;21486;51.916;8.378;2023-01-05T08:51:17;48.17;;;8.20;;
35380;SDS011;21486;51.916;8.378;2023-01-05T08:53:43;32.70;;;7.68;;
35380;SDS011;21486;51.916;8.378;2023-01-05T08:56:09;33.85;;;6.90;;
35380;SDS011;21486;51.916;8.378;2023-01-05T08:58:36;36.00;;;6.28;;
35380;SDS011;21486;51.916;8.378;2023-01-05T09:01:06;40.05;;;7.38;;
35380;SDS011;21486;51.916;8.378;2023-01-05T09:03:35;33.38;;;6.40;;
35380;SDS011;21486;51.916;8.378;2023-01-05T09:06:01;41.70;;;7.45;;
35380;SDS011;21486;51.916;8.378;2023-01-05T09:08:28;39.35;;;7.40;;
35380;SDS011;21486;51.916;8.378;2023-01-05T09:10:54;34.65;;;6.50;;
35380;SDS011;21486;51.916;8.378;2023-01-05T09:13:20;41.23;;;6.83;;
35380;SDS011;21486;51.916;8.378;2023-01-05T09:15:45;43.85;;;7.60;;
35380;SDS011;21486;51.916;8.378;2023-01-05T09:18:11;38.40;;;7.80;;
35380;SDS011;21486;51.916;8.378;2023-01-05T09:20:36;43.00;;;9.47;;
35380;SDS011;21486;51.916;8.378;2023-01-05T09:23:02;39.23;;;7.20;;
35380;SDS011;21486;51.916;8.378;2023-01-05T09:25:27;39.97;;;7.75;;
35380;SDS011;21486;51.916;8.378;2023-01-05T09:27:53;38.30;;;7.30;;
35380;SDS011;21486;51.916;8.378;2023-01-05T09:30:18;43.57;;;8.27;;
35380;SDS011;21486;51.916;8.378;2023-01-05T09:32:44;42.00;;;8.17;;
35380;SDS011;21486;51.916;8.378;2023-01-05T09:35:09;40.92;;;7.80;;
35380;SDS011;21486;51.916;8.378;2023-01-05T09:37:35;39.55;;;7.10;;
35380;SDS011;21486;51.916;8.378;2023-01-05T09:40:00;50.10;;;7.97;;
35380;SDS011;21486;51.916;8.378;2023-01-05T09:42:26;32.23;;;6.30;;
35380;SDS011;21486;51.916;8.378;2023-01-05T09:44:55;43.90;;;7.22;;
35380;SDS011;21486;51.916;8.378;2023-01-05T09:47:40;38.88;;;8.10;;
35380;SDS011;21486;51.916;8.378;2023-01-05T09:50:15;36.95;;;7.22;;
35380;SDS011;21486;51.916;8.378;2023-01-05T09:52:46;42.72;;;7.40;;
35380;SDS011;21486;51.916;8.378;2023-01-05T09:55:16;43.65;;;7.80;;
35380;SDS011;21486;51.916;8.378;2023-01-05T09:57:51;39.33;;;8.02;;
35380;SDS011;21486;51.916;8.378;2023-01-05T10:00:22;42.67;;;7.57;;
35380;SDS011;21486;51.916;8.378;2023-01-05T10:02:52;41.05;;;8.05;;
35380;SDS011;21486;51.916;8.378;2023-01-05T10:05:34;39.83;;;7.15;;
35380;SDS011;21486;51.916;8.378;2023-01-05T10:08:06;37.58;;;7.47;;
35380;SDS011;21486;51.916;8.378;2023-01-05T10:10:48;44.47;;;7.47;;
35380;SDS011;21486;51.916;8.378;2023-01-05T10:13:41;40.17;;;7.38;;
35380;SDS011;21486;51.916;8.378;2023-01-05T10:16:15;38.83;;;6.72;;
35380;SDS011;21486;51.916;8.378;2023-01-05T10:18:41;47.03;;;7.60;;
35380;SDS011;21486;51.916;8.378;2023-01-05T10:24:18;41.00;;;6.20;;
35380;SDS011;21486;51.916;8.378;2023-01-05T10:27:47;34.40;;;7.43;;
35380;SDS011;21486;51.916;8.378;2023-01-05T10:30:50;38.08;;;6.85;;
35380;SDS011;21486;51.916;8.378;2023-01-05T10:33:36;36.08;;;7.20;;
35380;SDS011;21486;51.916;8.378;2023-01-05T10:36:54;38.10;;;8.02;;
35380;SDS011;21486;51.916;8.378;2023-01-05T10:41:50;41.30;;;7.78;;
35380;SDS011;21486;51.916;8.378;2023-01-05T10:44:33;42.22;;;7.63;;
35380;SDS011;21486;51.916;8.378;2023-01-05T10:47:07;37.03;;;6.78;;
35380;SDS011;21486;51.916;8.378;2023-01-05T10:49:34;32.75;;;7.20;;
35380;SDS011;21486;51.916;8.378;2023-01-05T10:52:01;38.17;;;7.60;;
35380;SDS011;21486;51.916;8.378;2023-01-05T10:54:40;38.38;;;7.60;;
35380;SDS011;21486;51.916;8.378;2023-01-05T10:59:56;46.75;;;7.53;;
35380;SDS011;21486;51.916;8.378;2023-01-05T11:02:46;41.92;;;7.65;;
35380;SDS011;21486;51.916;8.378;2023-01-05T11:05:37;43.25;;;8.00;;
35380;SDS011;21486;51.916;8.378;2023-01-05T11:08:18;43.63;;;8.02;;
35380;SDS011;21486;51.916;8.378;2023-01-05T11:10:47;45.70;;;9.55;;
35380;SDS011;21486;51.916;8.378;2023-01-05T11:15:40;54.70;;;10.15;;
35380;SDS011;21486;51.916;8.378;2023-01-05T11:21:10;40.20;;;8.40;;
35380;SDS011;21486;51.916;8.378;2023-01-05T11:23:38;42.78;;;7.93;;
35380;SDS011;21486;51.916;8.378;2023-01-05T11:34:20;41.45;;;9.48;;
35380;SDS011;21486;51.916;8.378;2023-01-05T11:37:00;41.72;;;9.07;;
35380;SDS011;21486;51.916;8.378;2023-01-05T11:39:31;47.83;;;10.77;;
35380;SDS011;21486;51.916;8.378;2023-01-05T11:42:17;44.20;;;8.10;;
35380;SDS011;21486;51.916;8.378;2023-01-05T11:47:51;37.47;;;7.87;;
35380;SDS011;21486;51.916;8.378;2023-01-05T11:52:53;56.17;;;8.63;;
35380;SDS011;21486;51.916;8.378;2023-01-05T11:57:50;44.95;;;8.73;;
35380;SDS011;21486;51.916;8.378;2023-01-05T12:05:54;39.72;;;7.55;;
35380;SDS011;21486;51.916;8.378;2023-01-05T12:08:43;37.53;;;7.55;;
35380;SDS011;21486;51.916;8.378;2023-01-05T12:11:22;39.17;;;8.00;;
35380;SDS011;21486;51.916;8.378;2023-01-05T12:14:00;44.07;;;7.53;;
35380;SDS011;21486;51.916;8.378;2023-01-05T12:16:43;47.67;;;8.15;;
35380;SDS011;21486;51.916;8.378;2023-01-05T12:22:05;49.22;;;9.32;;
35380;SDS011;21486;51.916;8.378;2023-01-05T12:25:08;53.22;;;9.45;;
35380;SDS011;21486;51.916;8.378;2023-01-05T12:30:47;56.75;;;9.85;;
35380;SDS011;21486;51.916;8.378;2023-01-05T12:44:46;40.85;;;8.15;;
35380;SDS011;21486;51.916;8.378;2023-01-05T12:50:26;46.40;;;7.72;;
35380;SDS011;21486;51.916;8.378;2023-01-05T12:53:08;41.65;;;7.32;;
35380;SDS011;21486;51.916;8.378;2023-01-05T12:55:50;36.25;;;7.47;;
35380;SDS011;21486;51.916;8.378;2023-01-05T12:58:27;40.58;;;8.27;;
35380;SDS011;21486;51.916;8.378;2023-01-05T13:01:00;35.70;;;7.13;;
35380;SDS011;21486;51.916;8.378;2023-01-05T13:03:34;48.58;;;8.18;;
35380;SDS011;21486;51.916;8.378;2023-01-05T13:08:43;35.70;;;7.22;;
35380;SDS011;21486;51.916;8.378;2023-01-05T13:11:24;39.22;;;8.57;;
35380;SDS011;21486;51.916;8.378;2023-01-05T13:13:59;37.10;;;7.13;;
35380;SDS011;21486;51.916;8.378;2023-01-05T13:16:40;44.45;;;7.82;;
35380;SDS011;21486;51.916;8.378;2023-01-05T13:22:22;38.17;;;7.45;;
35380;SDS011;21486;51.916;8.378;2023-01-05T13:24:59;41.72;;;7.90;;
35380;SDS011;21486;51.916;8.378;2023-01-05T13:27:32;45.05;;;7.72;;
35380;SDS011;21486;51.916;8.378;2023-01-05T13:29:58;43.85;;;7.85;;
35380;SDS011;21486;51.916;8.378;2023-01-05T13:46:19;32.75;;;6.95;;
35380;SDS011;21486;51.916;8.378;2023-01-05T13:49:06;40.08;;;7.97;;
35380;SDS011;21486;51.916;8.378;2023-01-05T13:51:51;35.58;;;7.20;;
35380;SDS011;21486;51.916;8.378;2023-01-05T13:54:44;44.70;;;8.25;;
35380;SDS011;21486;51.916;8.378;2023-01-05T13:57:19;42.07;;;8.10;;
35380;SDS011;21486;51.916;8.378;2023-01-05T13:59:50;37.27;;;8.17;;
35380;SDS011;21486;51.916;8.378;2023-01-05T14:02:33;40.30;;;7.50;;
35380;SDS011;21486;51.916;8.378;2023-01-05T14:05:04;32.78;;;6.50;;
35380;SDS011;21486;51.916;8.378;2023-01-05T14:07:33;40.03;;;7.90;;
35380;SDS011;21486;51.916;8.378;2023-01-05T14:10:04;37.40;;;7.57;;
35380;SDS011;21486;51.916;8.378;2023-01-05T14:12:41;40.33;;;8.00;;
35380;SDS011;21486;51.916;8.378;2023-01-05T14:18:07;39.70;;;7.32;;
35380;SDS011;21486;51.916;8.378;2023-01-05T14:25:58;43.38;;;8.43;;
35380;SDS011;21486;51.916;8.378;2023-01-05T14:36:46;38.80;;;7.60;;
35380;SDS011;21486;51.916;8.378;2023-01-05T14:41:57;42.58;;;7.90;;
35380;SDS011;21486;51.916;8.378;2023-01-05T14:44:28;39.63;;;8.00;;
35380;SDS011;21486;51.916;8.378;2023-01-05T14:47:00;25.88;;;6.45;;
35380;SDS011;21486;51.916;8.378;2023-01-05T14:49:31;38.40;;;7.15;;
35380;SDS011;21486;51.916;8.378;2023-01-05T14:51:59;44.50;;;8.15;;
35380;SDS011;21486;51.916;8.378;2023-01-05T14:57:46;40.22;;;6.72;;
35380;SDS011;21486;51.916;8.378;2023-01-05T15:00:06;47.40;;;7.93;;
35380;SDS011;21486;51.916;8.378;2023-01-05T15:02:46;44.97;;;8.02;;
35380;SDS011;21486;51.916;8.378;2023-01-05T15:05:35;40.38;;;7.47;;
35380;SDS011;21486;51.916;8.378;2023-01-05T15:08:19;34.15;;;6.43;;
35380;SDS011;21486;51.916;8.378;2023-01-05T15:11:10;35.95;;;6.63;;
35380;SDS011;21486;51.916;8.378;2023-01-05T15:13:51;33.55;;;7.75;;
35380;SDS011;21486;51.916;8.378;2023-01-05T15:17:11;38.05;;;7.07;;
35380;SDS011;21486;51.916;8.378;2023-01-05T15:19:50;39.90;;;7.43;;
35380;SDS011;21486;51.916;8.378;2023-01-05T15:22:34;34.92;;;7.28;;
35380;SDS011;21486;51.916;8.378;2023-01-05T15:25:06;35.72;;;7.50;;
35380;SDS011;21486;51.916;8.378;2023-01-05T15:28:04;40.25;;;7.45;;
35380;SDS011;21486;51.916;8.378;2023-01-05T15:31:19;38.58;;;7.43;;
35380;SDS011;21486;51.916;8.378;2023-01-05T15:33:53;35.15;;;8.18;;
35380;SDS011;21486;51.916;8.378;2023-01-05T15:36:31;31.20;;;7.40;;
35380;SDS011;21486;51.916;8.378;2023-01-05T15:39:09;40.72;;;7.55;;
35380;SDS011;21486;51.916;8.378;2023-01-05T15:41:50;36.20;;;8.10;;
35380;SDS011;21486;51.916;8.378;2023-01-05T15:44:17;30.85;;;7.57;;
35380;SDS011;21486;51.916;8.378;2023-01-05T15:46:44;38.08;;;7.50;;
35380;SDS011;21486;51.916;8.378;2023-01-05T15:49:22;31.05;;;8.00;;
35380;SDS011;21486;51.916;8.378;2023-01-05T15:51:52;34.88;;;7.40;;
35380;SDS011;21486;51.916;8.378;2023-01-05T15:54:29;41.22;;;8.35;;
35380;SDS011;21486;51.916;8.378;2023-01-05T15:56:56;37.80;;;7.90;;
35380;SDS011;21486;51.916;8.378;2023-01-05T15:59:26;42.63;;;8.55;;
35380;SDS011;21486;51.916;8.378;2023-01-05T16:01:52;37.03;;;8.25;;
35380;SDS011;21486;51.916;8.378;2023-01-05T16:04:17;39.05;;;9.02;;
35380;SDS011;21486;51.916;8.378;2023-01-05T16:06:47;31.58;;;7.88;;
35380;SDS011;21486;51.916;8.378;2023-01-05T16:09:20;42.92;;;8.68;;
35380;SDS011;21486;51.916;8.378;2023-01-05T16:11:50;40.77;;;8.40;;
35380;SDS011;21486;51.916;8.378;2023-01-05T16:14:54;40.58;;;7.82;;
35380;SDS011;21486;51.916;8.378;2023-01-05T16:17:17;40.43;;;8.03;;
35380;SDS011;21486;51.916;8.378;2023-01-05T16:19:47;40.88;;;7.85;;
35380;SDS011;21486;51.916;8.378;2023-01-05T16:22:17;38.47;;;8.32;;
35380;SDS011;21486;51.916;8.378;2023-01-05T16:24:51;38.35;;;8.45;;
35380;SDS011;21486;51.916;8.378;2023-01-05T16:27:23;38.38;;;9.35;;
35380;SDS011;21486;51.916;8.378;2023-01-05T16:29:49;46.67;;;10.40;;
35380;SDS011;21486;51.916;8.378;2023-01-05T16:35:19;43.45;;;9.65;;
35380;SDS011;21486;51.916;8.378;2023-01-05T16:40:34;37.08;;;7.70;;
35380;SDS011;21486;51.916;8.378;2023-01-05T16:43:21;42.00;;;9.10;;
35380;SDS011;21486;51.916;8.378;2023-01-05T16:45:54;47.60;;;9.30;;
35380;SDS011;21486;51.916;8.378;2023-01-05T16:50:51;39.37;;;9.27;;
35380;SDS011;21486;51.916;8.378;2023-01-05T16:53:19;39.60;;;9.65;;
35380;SDS011;21486;51.916;8.378;2023-01-05T16:55:46;40.50;;;9.90;;
35380;SDS011;21486;51.916;8.378;2023-01-05T16:58:32;41.10;;;10.00;;
35380;SDS011;21486;51.916;8.378;2023-01-05T17:01:13;47.03;;;9.77;;
35380;SDS011;21486;51.916;8.378;2023-01-05T17:03:46;49.25;;;10.68;;
35380;SDS011;21486;51.916;8.378;2023-01-05T17:06:26;42.53;;;10.33;;
35380;SDS011;21486;51.916;8.378;2023-01-05T17:08:54;46.13;;;10.23;;
35380;SDS011;21486;51.916;8.378;2023-01-05T17:11:23;44.40;;;10.13;;
35380;SDS011;21486;51.916;8.378;2023-01-05T17:13:52;42.90;;;9.97;;
35380;SDS011;21486;51.916;8.378;2023-01-05T17:16:19;40.10;;;10.17;;